createdAt,value
2018-07-12T01:43:44.677Z,99.90
2018-07-12T01:46:11.860Z,99.90
2018-07-12T01:48:39.316Z,99.90
2018-07-12T01:51:06.579Z,99.90
2018-07-12T01:53:33.720Z,99.90
2018-07-12T01:56:00.848Z,99.90
2018-07-12T01:58:28.004Z,99.90
2018-07-12T02:00:55.165Z,99.90
2018-07-12T02:03:22.282Z,99.90
2018-07-12T02:05:49.467Z,99.90
2018-07-12T02:08:16.609Z,99.90
2018-07-12T02:10:43.716Z,99.90
2018-07-12T02:13:10.841Z,99.90
2018-07-12T02:15:37.960Z,99.90
2018-07-12T02:18:05.065Z,99.90
2018-07-12T02:20:32.182Z,99.90
2018-07-12T02:22:59.322Z,99.90
2018-07-12T02:25:26.440Z,99.90
2018-07-12T02:27:53.613Z,99.90
2018-07-12T02:30:20.737Z,99.90
2018-07-12T02:35:22.597Z,99.90
2018-07-12T02:37:49.729Z,99.90
2018-07-12T02:40:16.836Z,99.90
2018-07-12T02:42:44.292Z,99.90
2018-07-12T02:45:11.605Z,99.90
2018-07-12T02:47:38.731Z,99.90
2018-07-12T02:50:06.675Z,99.90
2018-07-12T02:52:33.797Z,99.90
2018-07-12T02:55:00.921Z,99.90
2018-07-12T02:57:28.544Z,99.90
2018-07-12T02:59:55.890Z,99.90
2018-07-12T03:02:23.018Z,99.90
2018-07-12T03:04:50.141Z,99.90
2018-07-12T03:07:17.257Z,99.90
2018-07-12T03:09:44.375Z,99.90
2018-07-12T03:12:13.508Z,99.90
2018-07-12T03:14:40.678Z,99.90
2018-07-12T03:17:07.891Z,99.90
2018-07-12T03:19:35.138Z,99.90
2018-07-12T03:22:03.856Z,99.90
2018-07-12T03:24:31.093Z,99.90
2018-07-12T03:26:58.217Z,99.90
2018-07-12T03:29:25.343Z,99.90
2018-07-12T03:31:52.488Z,99.90
2018-07-12T03:36:47.030Z,99.90
2018-07-12T03:39:14.173Z,99.90
2018-07-12T03:41:41.318Z,99.90
2018-07-12T03:44:08.472Z,99.90
2018-07-12T03:46:35.590Z,99.90
2018-07-12T03:49:02.714Z,99.90
2018-07-12T03:51:29.824Z,99.90
2018-07-12T03:53:57.095Z,99.90
2018-07-12T03:56:24.225Z,99.90
2018-07-12T03:58:51.345Z,99.90
2018-07-12T04:01:18.452Z,99.90
2018-07-12T04:03:45.591Z,99.90
2018-07-12T04:06:12.697Z,99.90
2018-07-12T04:08:39.824Z,99.90
2018-07-12T04:11:06.929Z,99.90
2018-07-12T04:13:34.081Z,99.90
2018-07-12T04:16:01.232Z,99.90
2018-07-12T04:18:28.353Z,99.90
2018-07-12T04:20:55.483Z,99.90
2018-07-12T04:23:22.609Z,99.90
2018-07-12T04:25:49.729Z,99.90
2018-07-12T04:28:16.849Z,99.90
2018-07-12T04:30:44.186Z,99.90
2018-07-12T04:33:11.508Z,99.90
2018-07-12T04:35:38.820Z,99.90
2018-07-12T04:38:06.153Z,99.90
2018-07-12T04:40:33.502Z,99.90
2018-07-12T04:43:00.986Z,99.90
2018-07-12T04:45:28.343Z,99.90
2018-07-12T04:47:55.697Z,99.90
2018-07-12T04:50:23.054Z,99.90
2018-07-12T04:52:50.373Z,99.90
2018-07-12T04:55:17.713Z,99.90
2018-07-12T04:57:45.033Z,99.90
2018-07-12T05:00:12.354Z,99.90
2018-07-12T05:02:39.694Z,99.90
2018-07-12T05:05:07.013Z,99.90
2018-07-12T05:07:34.361Z,99.90
2018-07-12T05:10:01.733Z,99.90
2018-07-12T05:12:29.082Z,99.90
2018-07-12T05:14:56.408Z,99.90
2018-07-12T05:17:23.749Z,99.90
2018-07-12T05:19:51.065Z,99.90
2018-07-12T05:22:18.404Z,99.90
2018-07-12T05:24:45.774Z,99.90
2018-07-12T05:27:13.097Z,99.90
2018-07-12T05:29:40.418Z,99.90
2018-07-12T05:32:07.769Z,99.90
2018-07-12T05:37:04.042Z,99.90
2018-07-12T05:39:32.522Z,99.90
2018-07-12T05:42:01.077Z,99.90
2018-07-12T05:44:29.571Z,99.90
2018-07-12T05:46:58.073Z,99.90
2018-07-12T05:49:26.562Z,99.90
2018-07-12T05:51:55.051Z,99.90
2018-07-12T05:54:23.516Z,99.90
2018-07-12T05:56:52.005Z,99.90
2018-07-12T05:59:20.501Z,99.90
2018-07-12T06:02:00.393Z,99.90
2018-07-12T06:04:28.872Z,96.70
2018-07-12T06:06:57.337Z,95.30
2018-07-12T06:11:54.002Z,93.70
2018-07-12T06:14:22.493Z,91.00
2018-07-12T06:16:51.017Z,90.10
2018-07-12T06:19:19.505Z,88.10
2018-07-12T06:21:47.986Z,84.00
2018-07-12T06:24:16.671Z,84.00
2018-07-12T06:26:45.301Z,82.50
2018-07-12T06:29:13.823Z,75.20
2018-07-12T06:31:42.685Z,75.10
2018-07-12T06:34:11.186Z,75.50
2018-07-12T06:36:39.728Z,74.90
2018-07-12T06:39:09.541Z,71.90
2018-07-12T06:41:38.064Z,71.70
2018-07-12T06:44:06.621Z,71.30
2018-07-12T06:46:35.285Z,72.00
2018-07-12T06:49:03.779Z,71.00
2018-07-12T06:51:32.481Z,70.50
2018-07-12T06:54:00.994Z,71.10
2018-07-12T06:56:29.467Z,71.90
2018-07-12T06:58:57.937Z,71.80
2018-07-12T07:01:26.454Z,70.10
2018-07-12T07:03:55.402Z,68.10
2018-07-12T07:06:23.856Z,65.70
2018-07-12T07:08:52.369Z,66.50
2018-07-12T07:11:20.877Z,66.00
2018-07-12T07:13:49.369Z,66.40
2018-07-12T07:16:17.893Z,65.40
2018-07-12T07:18:46.493Z,65.10
2018-07-12T07:21:14.975Z,66.10
2018-07-12T07:23:43.533Z,64.90
2018-07-12T07:26:12.184Z,64.60
2018-07-12T07:28:40.633Z,65.30
2018-07-12T07:31:09.389Z,65.20
2018-07-12T07:33:37.857Z,64.10
2018-07-12T07:36:06.406Z,64.80
2018-07-12T07:38:34.889Z,64.30
2018-07-12T07:41:03.397Z,65.50
2018-07-12T07:43:31.858Z,65.30
2018-07-12T07:46:00.326Z,64.90
2018-07-12T07:48:28.865Z,64.40
2018-07-12T07:50:57.345Z,65.00
2018-07-12T07:53:25.806Z,63.00
2018-07-12T07:55:54.285Z,63.90
2018-07-12T07:58:22.766Z,63.60
2018-07-12T08:00:51.249Z,63.50
2018-07-12T08:03:19.733Z,63.40
2018-07-12T08:05:48.313Z,62.20
2018-07-12T08:08:16.911Z,62.70
2018-07-12T08:10:45.410Z,63.50
2018-07-12T08:15:42.109Z,64.00
2018-07-12T08:18:10.661Z,63.50
2018-07-12T08:20:39.146Z,61.60
2018-07-12T08:23:07.641Z,60.70
2018-07-12T08:25:36.134Z,61.50
2018-07-12T08:28:23.206Z,60.00
2018-07-12T08:30:51.897Z,58.30
2018-07-12T08:33:20.416Z,58.50
2018-07-12T08:35:49.153Z,59.10
2018-07-12T08:38:17.685Z,59.60
2018-07-12T08:40:46.645Z,60.90
2018-07-12T08:43:15.157Z,61.10
2018-07-12T08:45:44.314Z,61.50
2018-07-12T08:48:12.812Z,60.00
2018-07-12T08:50:41.274Z,59.90
2018-07-12T08:53:09.796Z,60.00
2018-07-12T08:55:38.282Z,57.80
2018-07-12T08:58:06.768Z,56.90
2018-07-12T09:00:35.258Z,57.90
2018-07-12T09:03:03.745Z,57.80
2018-07-12T09:05:32.246Z,56.10
2018-07-12T09:08:00.778Z,55.70
2018-07-12T09:10:29.285Z,55.40
2018-07-12T09:12:57.771Z,55.50
2018-07-12T09:15:26.254Z,55.10
2018-07-12T09:17:54.769Z,55.10
2018-07-12T09:20:23.233Z,56.00
2018-07-12T09:22:51.761Z,55.50
2018-07-12T09:25:20.284Z,55.80
2018-07-12T09:27:48.766Z,56.20
2018-07-12T09:30:17.245Z,56.30
2018-07-12T09:32:45.733Z,55.70
2018-07-12T09:35:14.213Z,56.00
2018-07-12T09:37:42.721Z,55.30
2018-07-12T09:40:11.210Z,55.50
2018-07-12T09:45:07.883Z,55.70
2018-07-12T09:47:36.592Z,54.70
2018-07-12T09:50:04.929Z,54.90
2018-07-12T09:52:35.265Z,54.00
2018-07-12T09:55:04.257Z,54.00
2018-07-12T09:57:44.414Z,54.00
2018-07-12T10:00:12.917Z,54.30
2018-07-12T10:02:47.413Z,54.10
2018-07-12T10:05:21.153Z,53.80
2018-07-12T10:07:51.280Z,54.40
2018-07-12T10:10:23.986Z,53.20
2018-07-12T10:12:57.894Z,52.80
2018-07-12T10:15:31.705Z,53.10
2018-07-12T10:18:37.136Z,52.30
2018-07-12T10:21:05.701Z,53.00
2018-07-12T10:23:34.201Z,52.90
2018-07-12T10:26:02.683Z,51.60
2018-07-12T10:28:31.197Z,51.60
2018-07-12T10:30:59.673Z,49.80
2018-07-12T10:33:28.177Z,50.30
2018-07-12T10:35:56.665Z,50.70
2018-07-12T10:38:25.141Z,50.90
2018-07-12T10:40:53.640Z,50.60
2018-07-12T10:43:22.093Z,49.20
2018-07-12T10:45:50.581Z,50.10
2018-07-12T10:48:19.050Z,49.30
2018-07-12T10:50:47.557Z,48.00
2018-07-12T10:53:16.014Z,47.50
2018-07-12T10:55:44.549Z,47.60
2018-07-12T10:58:13.030Z,48.60
2018-07-12T11:00:41.521Z,48.80
2018-07-12T11:03:10.027Z,48.10
2018-07-12T11:05:38.489Z,48.50
2018-07-12T11:08:06.974Z,48.00
2018-07-12T11:10:35.466Z,48.40
2018-07-12T11:13:12.274Z,48.70
2018-07-12T11:15:40.782Z,49.10
2018-07-12T11:18:09.270Z,49.30
2018-07-12T11:20:37.809Z,49.00
2018-07-12T11:23:06.272Z,48.30
2018-07-12T11:25:34.746Z,49.20
2018-07-12T11:28:03.685Z,47.80
2018-07-12T11:30:32.533Z,47.40
2018-07-12T11:33:03.206Z,48.00
2018-07-12T11:35:31.749Z,47.90
2018-07-12T11:38:00.218Z,47.60
2018-07-12T11:40:28.725Z,47.00
2018-07-12T11:42:57.189Z,47.50
2018-07-12T11:45:25.657Z,48.00
2018-07-12T11:47:54.150Z,47.10
2018-07-12T11:50:22.601Z,45.50
2018-07-12T11:52:51.165Z,45.50
2018-07-12T11:55:19.577Z,45.70
2018-07-12T11:57:48.082Z,46.10
2018-07-12T12:00:16.536Z,45.50
2018-07-12T12:02:45.010Z,46.50
2018-07-12T12:05:13.474Z,47.00
2018-07-12T12:07:41.941Z,47.00
2018-07-12T12:10:10.409Z,46.00
2018-07-12T12:12:38.881Z,47.40
2018-07-12T12:15:07.406Z,47.70
2018-07-12T12:17:35.853Z,47.20
2018-07-12T12:20:04.521Z,44.50
2018-07-12T12:22:32.981Z,44.30
2018-07-12T12:25:01.445Z,43.70
2018-07-12T12:27:29.917Z,45.00
2018-07-12T12:29:58.441Z,44.40
2018-07-12T12:32:26.910Z,43.70
2018-07-12T12:34:55.394Z,43.40
2018-07-12T12:37:25.788Z,44.80
2018-07-12T12:39:54.256Z,44.10
2018-07-12T12:42:22.736Z,44.80
2018-07-12T12:44:51.189Z,43.30
2018-07-12T12:47:19.657Z,42.10
2018-07-12T12:49:48.120Z,42.70
2018-07-12T12:52:16.610Z,42.50
2018-07-12T12:54:45.620Z,42.00
2018-07-12T12:57:14.085Z,43.40
2018-07-12T12:59:42.561Z,40.70
2018-07-12T13:02:11.044Z,40.40
2018-07-12T13:04:39.550Z,42.10
2018-07-12T13:07:08.068Z,42.00
2018-07-12T13:09:36.530Z,42.30
2018-07-12T13:12:05.027Z,43.30
2018-07-12T13:14:33.522Z,44.20
2018-07-12T13:17:02.050Z,44.70
2018-07-12T13:19:30.617Z,43.40
2018-07-12T13:21:59.429Z,41.40
2018-07-12T13:26:56.194Z,43.90
2018-07-12T13:29:24.758Z,44.00
2018-07-12T13:31:53.289Z,44.80
2018-07-12T13:34:21.825Z,44.50
2018-07-12T13:38:19.909Z,44.80
2018-07-12T13:40:48.377Z,45.50
2018-07-12T13:43:16.856Z,46.00
2018-07-12T13:45:45.337Z,45.70
2018-07-12T13:48:13.849Z,45.80
2018-07-12T13:50:42.361Z,46.50
2018-07-12T13:53:10.834Z,46.70
2018-07-12T13:55:39.364Z,46.40
2018-07-12T13:58:07.920Z,46.50
2018-07-12T14:00:36.373Z,44.60
2018-07-12T14:03:05.133Z,45.90
2018-07-12T14:05:33.629Z,43.90
2018-07-12T14:08:02.097Z,44.90
2018-07-12T14:10:30.604Z,44.80
2018-07-12T14:12:59.133Z,43.10
2018-07-12T14:15:27.609Z,42.60
2018-07-12T14:17:56.071Z,42.30
2018-07-12T14:20:24.568Z,41.40
2018-07-12T14:22:53.038Z,42.10
2018-07-12T14:25:21.517Z,43.30
2018-07-12T14:27:50.090Z,42.10
2018-07-12T14:30:18.550Z,42.00
2018-07-12T14:32:47.026Z,40.50
2018-07-12T14:35:15.489Z,40.90
2018-07-12T14:37:43.958Z,41.10
2018-07-12T14:40:12.434Z,39.30
2018-07-12T14:42:40.917Z,40.50
2018-07-12T14:45:09.428Z,38.50
2018-07-12T14:47:37.990Z,40.20
2018-07-12T14:50:06.458Z,39.50
2018-07-12T14:52:34.937Z,39.60
2018-07-12T14:55:03.425Z,39.00
2018-07-12T14:57:31.887Z,38.10
2018-07-12T15:00:00.373Z,38.50
2018-07-12T15:02:28.841Z,38.90
2018-07-12T15:04:57.329Z,40.00
2018-07-12T15:07:25.825Z,41.10
2018-07-12T15:09:54.317Z,39.90
2018-07-12T15:12:22.777Z,39.00
2018-07-12T15:14:51.256Z,39.10
2018-07-12T15:17:19.766Z,38.20
2018-07-12T15:19:48.230Z,36.70
2018-07-12T15:22:16.753Z,37.90
2018-07-12T15:24:45.226Z,35.30
2018-07-12T15:27:13.690Z,34.60
2018-07-12T15:29:42.313Z,34.00
2018-07-12T15:32:10.726Z,34.80
2018-07-12T15:34:39.248Z,35.40
2018-07-12T15:37:07.742Z,33.80
2018-07-12T15:39:36.189Z,33.70
2018-07-12T15:42:04.685Z,34.00
2018-07-12T15:44:33.206Z,33.80
2018-07-12T15:47:01.749Z,32.60
2018-07-12T15:49:30.233Z,33.40
2018-07-12T15:51:58.691Z,32.60
2018-07-12T15:54:27.593Z,31.40
2018-07-12T15:56:56.301Z,32.70
2018-07-12T15:59:24.762Z,32.20
2018-07-12T16:01:53.305Z,33.50
2018-07-12T16:04:21.785Z,34.60
2018-07-12T16:06:50.249Z,34.90
2018-07-12T16:09:18.718Z,36.20
2018-07-12T16:11:47.227Z,36.70
2018-07-12T16:14:15.715Z,37.40
2018-07-12T16:16:44.218Z,37.40
2018-07-12T16:19:12.698Z,38.60
2018-07-12T16:21:41.193Z,39.30
2018-07-12T16:24:09.677Z,39.90
2018-07-12T16:26:38.165Z,40.00
2018-07-12T16:29:06.659Z,39.80
2018-07-12T16:31:35.110Z,39.50
2018-07-12T16:34:03.674Z,39.40
2018-07-12T16:36:32.159Z,38.90
2018-07-12T16:39:00.621Z,39.40
2018-07-12T16:41:29.149Z,40.00
2018-07-12T16:43:57.614Z,39.80
2018-07-12T16:46:26.137Z,39.70
2018-07-12T16:48:54.651Z,39.40
2018-07-12T16:53:51.251Z,40.30
2018-07-12T16:56:19.757Z,40.80
2018-07-12T16:58:48.420Z,40.50
2018-07-12T17:01:16.917Z,40.80
2018-07-12T17:03:45.389Z,40.80
2018-07-12T17:06:13.837Z,41.20
2018-07-12T17:08:42.321Z,40.40
2018-07-12T17:11:10.857Z,41.10
2018-07-12T17:13:39.385Z,41.80
2018-07-12T17:16:07.877Z,42.50
2018-07-12T17:18:36.337Z,42.40
2018-07-12T17:21:04.797Z,43.20
2018-07-12T17:23:33.279Z,43.10
2018-07-12T17:26:01.797Z,43.40
2018-07-12T17:28:30.302Z,43.40
2018-07-12T17:30:58.780Z,43.60
2018-07-12T17:33:27.341Z,43.50
2018-07-12T17:35:55.798Z,43.70
2018-07-12T17:38:24.297Z,44.00
2018-07-12T17:40:52.761Z,44.30
2018-07-12T17:43:21.290Z,44.50
2018-07-12T17:45:49.793Z,44.40
2018-07-12T17:48:18.272Z,44.40
2018-07-12T17:50:46.754Z,44.10
2018-07-12T17:53:15.220Z,43.90
2018-07-12T17:55:43.685Z,43.60
2018-07-12T17:58:12.409Z,43.00
2018-07-12T18:00:40.973Z,43.30
2018-07-12T18:03:09.470Z,43.70
2018-07-12T18:05:37.958Z,44.40
2018-07-12T18:08:06.429Z,44.50
2018-07-12T18:10:34.908Z,45.30
2018-07-12T18:13:03.427Z,45.80
2018-07-12T18:15:31.934Z,45.50
2018-07-12T18:18:00.429Z,45.70
2018-07-12T18:20:28.933Z,46.60
2018-07-12T18:22:57.390Z,47.60
2018-07-12T18:25:25.867Z,48.50
2018-07-12T18:27:54.345Z,48.20
2018-07-12T18:30:22.825Z,49.10
2018-07-12T18:32:51.321Z,49.40
2018-07-12T18:35:19.845Z,50.20
2018-07-12T18:37:48.381Z,50.40
2018-07-12T18:40:16.898Z,50.30
2018-07-12T18:42:45.413Z,50.50
2018-07-12T18:45:13.877Z,50.10
2018-07-12T18:47:42.450Z,50.00
2018-07-12T18:50:10.925Z,50.00
2018-07-12T18:52:39.395Z,50.50
2018-07-12T18:55:07.905Z,50.90
2018-07-12T18:57:36.374Z,51.40
2018-07-12T19:00:05.446Z,52.10
2018-07-12T19:05:02.094Z,53.70
2018-07-12T19:07:30.581Z,54.30
2018-07-12T19:09:59.044Z,54.60
2018-07-12T19:12:27.501Z,54.80
2018-07-12T19:14:56.195Z,55.10
2018-07-12T19:17:24.914Z,55.60
2018-07-12T19:19:54.097Z,56.00
2018-07-12T19:22:22.818Z,56.10
2018-07-12T19:24:51.354Z,56.50
2018-07-12T19:27:19.966Z,56.60
2018-07-12T19:32:16.733Z,56.90
2018-07-12T19:34:45.249Z,57.10
2018-07-12T19:37:13.737Z,57.40
2018-07-12T19:39:42.213Z,57.40
2018-07-12T19:42:11.062Z,57.40
2018-07-12T19:44:39.676Z,57.70
2018-07-12T19:47:08.263Z,57.80
2018-07-12T19:49:36.725Z,57.50
2018-07-12T19:52:05.373Z,57.70
2018-07-12T19:54:33.961Z,57.70
2018-07-12T19:57:02.469Z,58.30
2018-07-12T19:59:31.357Z,58.30
2018-07-12T20:01:59.854Z,57.80
2018-07-12T20:04:28.312Z,58.40
2018-07-12T20:06:56.816Z,58.70
2018-07-12T20:09:25.298Z,59.00
2018-07-12T20:11:53.749Z,59.10
2018-07-12T20:14:22.253Z,59.40
2018-07-12T20:16:50.745Z,59.60
2018-07-12T20:19:19.201Z,59.80
2018-07-12T20:21:47.890Z,60.10
2018-07-12T20:24:16.485Z,60.30
2018-07-12T20:26:45.234Z,60.80
2018-07-12T20:29:13.713Z,61.00
2018-07-12T20:31:42.218Z,61.50
2018-07-12T20:34:10.707Z,61.80
2018-07-12T20:36:39.274Z,63.10
2018-07-12T20:39:08.596Z,63.20
2018-07-12T20:41:37.066Z,63.50
2018-07-12T20:44:05.550Z,64.60
2018-07-12T20:46:34.082Z,64.00
2018-07-12T20:49:02.581Z,64.40
2018-07-12T20:51:31.373Z,64.50
2018-07-12T20:53:59.841Z,64.30
2018-07-12T20:56:28.314Z,63.80
2018-07-12T20:58:56.805Z,63.40
2018-07-12T21:01:25.308Z,62.30
2018-07-12T21:03:53.785Z,60.80
2018-07-12T21:06:22.252Z,60.50
2018-07-12T21:08:50.750Z,61.30
2018-07-12T21:11:19.218Z,61.70
2018-07-12T21:13:47.705Z,60.40
2018-07-12T21:16:16.205Z,59.30
2018-07-12T21:18:44.673Z,58.20
2018-07-12T21:21:13.141Z,58.20
2018-07-12T21:23:41.686Z,58.20
2018-07-12T21:26:10.141Z,58.20
2018-07-12T21:28:38.905Z,58.20
2018-07-12T21:31:07.445Z,58.50
2018-07-12T21:33:36.036Z,59.00
2018-07-12T21:36:04.423Z,58.80
2018-07-12T21:38:32.898Z,58.90
2018-07-12T21:41:01.353Z,59.30
2018-07-12T21:45:58.027Z,59.40
2018-07-12T21:48:26.524Z,59.30
2018-07-12T21:50:54.991Z,59.40
2018-07-12T21:53:23.449Z,59.50
2018-07-12T21:55:51.893Z,59.70
2018-07-12T21:58:20.394Z,60.30
2018-07-12T22:00:48.922Z,59.60
2018-07-12T22:03:17.396Z,59.90
2018-07-12T22:05:46.146Z,60.30
2018-07-12T22:08:17.037Z,60.60
2018-07-12T22:10:46.484Z,60.80
2018-07-12T22:13:15.486Z,60.60
2018-07-12T22:15:44.193Z,60.90
2018-07-12T22:18:12.694Z,60.70
2018-07-12T22:20:41.205Z,61.20
2018-07-12T22:23:09.745Z,62.00
2018-07-12T22:25:38.508Z,62.70
2018-07-12T22:28:07.390Z,62.90
2018-07-12T22:30:35.984Z,63.00
2018-07-12T22:33:04.954Z,63.20
2018-07-12T22:35:33.487Z,62.60
2018-07-12T22:38:02.978Z,62.60
2018-07-12T22:40:31.738Z,63.30
2018-07-12T22:45:28.501Z,63.50
2018-07-12T22:47:57.347Z,63.70
2018-07-12T22:50:25.841Z,63.90
2018-07-12T22:52:54.345Z,63.20
2018-07-12T22:55:22.945Z,63.10
2018-07-12T22:57:51.402Z,63.00
2018-07-12T23:00:19.869Z,63.20
2018-07-12T23:02:48.317Z,63.50
2018-07-12T23:05:16.789Z,63.90
2018-07-12T23:07:45.289Z,64.30
2018-07-12T23:10:13.769Z,64.80
2018-07-12T23:12:42.217Z,65.30
2018-07-12T23:15:10.719Z,65.50
2018-07-12T23:17:39.179Z,65.40
2018-07-12T23:20:07.685Z,65.00
2018-07-12T23:22:36.166Z,64.60
2018-07-12T23:25:04.688Z,64.40
2018-07-12T23:27:33.157Z,63.90
2018-07-12T23:30:01.638Z,63.50
2018-07-12T23:32:30.172Z,63.20
2018-07-12T23:34:58.645Z,62.90
2018-07-12T23:37:27.132Z,62.70
2018-07-12T23:39:55.609Z,62.60
2018-07-12T23:42:24.073Z,62.50
2018-07-12T23:44:52.550Z,62.50
2018-07-12T23:47:21.033Z,62.10
2018-07-12T23:49:49.493Z,61.90
2018-07-12T23:52:17.977Z,61.40
2018-07-12T23:54:46.502Z,61.40
2018-07-12T23:57:14.977Z,61.10
2018-07-12T23:59:43.452Z,61.10
